createdAt,value
2022-11-25T00:01:05.292Z,78.26
2022-11-25T00:03:33.332Z,78.01
2022-11-25T00:06:14.415Z,79.09
2022-11-25T00:08:43.306Z,79.84
2022-11-25T00:11:11.620Z,78.91
2022-11-25T00:13:40.476Z,78.29
2022-11-25T00:16:10.995Z,77.70
2022-11-25T00:18:39.911Z,77.65
2022-11-25T00:21:08.860Z,77.87
2022-11-25T00:23:38.938Z,77.27
2022-11-25T00:26:08.494Z,78.44
2022-11-25T00:28:36.474Z,78.46
2022-11-25T00:31:09.116Z,78.88
2022-11-25T00:33:37.378Z,79.07
2022-11-25T00:36:06.956Z,79.13
2022-11-25T00:38:34.839Z,79.01
2022-11-25T00:41:21.721Z,78.21
2022-11-25T00:44:07.238Z,78.48
2022-11-25T00:46:35.262Z,77.26
2022-11-25T00:49:03.286Z,76.67
2022-11-25T00:51:31.209Z,77.08
2022-11-25T00:53:59.465Z,76.77
2022-11-25T00:56:30.350Z,77.60
2022-11-25T00:58:59.114Z,76.92
2022-11-25T01:01:27.686Z,77.43
2022-11-25T01:03:55.769Z,77.02
2022-11-25T01:06:24.281Z,77.33
2022-11-25T01:08:52.238Z,77.73
2022-11-25T01:11:21.857Z,76.89
2022-11-25T01:14:00.655Z,77.68
2022-11-25T01:16:30.249Z,77.34
2022-11-25T01:18:59.749Z,77.69
2022-11-25T01:21:29.614Z,77.71
2022-11-25T01:23:59.541Z,77.56
2022-11-25T01:26:28.085Z,76.86
2022-11-25T01:29:00.379Z,76.91
2022-11-25T01:31:30.829Z,76.43
2022-11-25T01:34:00.638Z,77.26
2022-11-25T01:36:29.280Z,77.00
2022-11-25T01:38:59.371Z,76.53
2022-11-25T01:41:28.937Z,76.91
2022-11-25T01:44:13.612Z,76.84
2022-11-25T01:46:50.706Z,77.25
2022-11-25T01:49:22.145Z,77.39
2022-11-25T01:51:54.567Z,76.93
2022-11-25T01:54:27.051Z,77.02
2022-11-25T01:57:00.156Z,77.65
2022-11-25T01:59:33.258Z,76.69
2022-11-25T02:02:02.204Z,76.79
2022-11-25T02:04:37.043Z,77.70
2022-11-25T02:07:10.802Z,77.35
2022-11-25T02:09:42.464Z,76.93
2022-11-25T02:12:11.077Z,78.29
2022-11-25T02:14:41.340Z,79.47
2022-11-25T02:17:09.380Z,79.46
2022-11-25T02:19:57.047Z,78.73
2022-11-25T02:22:32.701Z,78.87
2022-11-25T02:25:10.601Z,78.33
2022-11-25T02:27:38.625Z,78.26
2022-11-25T02:30:07.853Z,78.23
2022-11-25T02:32:35.749Z,78.57
2022-11-25T02:35:03.610Z,78.83
2022-11-25T02:37:31.671Z,78.86
2022-11-25T02:39:59.750Z,78.38
2022-11-25T02:42:31.801Z,78.05
2022-11-25T02:44:59.807Z,78.82
2022-11-25T02:47:27.661Z,78.90
2022-11-25T02:49:55.486Z,78.68
2022-11-25T02:52:23.315Z,78.35
2022-11-25T02:54:51.228Z,77.86
2022-11-25T02:57:19.077Z,77.92
2022-11-25T02:59:49.477Z,78.95
2022-11-25T03:02:17.525Z,78.16
2022-11-25T03:04:45.502Z,78.09
2022-11-25T03:07:13.388Z,78.39
2022-11-25T03:09:41.594Z,77.84
2022-11-25T03:12:21.477Z,77.44
2022-11-25T03:14:55.772Z,78.00
2022-11-25T03:17:23.936Z,78.46
2022-11-25T03:19:51.792Z,79.00
2022-11-25T03:22:19.641Z,78.39
2022-11-25T03:24:47.508Z,78.73
2022-11-25T03:27:15.358Z,79.16
2022-11-25T03:29:43.679Z,78.41
2022-11-25T03:32:13.258Z,79.05
2022-11-25T03:34:41.555Z,78.16
2022-11-25T03:37:09.809Z,78.80
2022-11-25T03:39:38.552Z,77.80
2022-11-25T03:42:08.348Z,78.04
2022-11-25T03:44:36.553Z,77.76
2022-11-25T03:47:05.163Z,77.85
2022-11-25T03:49:35.054Z,77.86
2022-11-25T03:52:03.202Z,77.89
2022-11-25T03:54:32.006Z,78.73
2022-11-25T03:57:13.317Z,78.18
2022-11-25T03:59:41.215Z,77.90
2022-11-25T04:02:09.464Z,77.65
2022-11-25T04:04:39.241Z,77.91
2022-11-25T04:07:07.277Z,78.30
2022-11-25T04:09:35.579Z,79.49
2022-11-25T04:12:24.657Z,78.56
2022-11-25T04:14:56.414Z,78.26
2022-11-25T04:17:24.314Z,78.33
2022-11-25T04:19:54.118Z,77.81
2022-11-25T04:22:21.999Z,77.62
2022-11-25T04:24:50.835Z,78.06
2022-11-25T04:27:24.736Z,78.23
2022-11-25T04:29:53.833Z,78.54
2022-11-25T04:32:22.963Z,77.99
2022-11-25T04:34:50.891Z,77.54
2022-11-25T04:37:20.739Z,78.23
2022-11-25T04:39:49.469Z,78.43
2022-11-25T04:42:34.549Z,78.96
2022-11-25T04:45:22.430Z,79.61
2022-11-25T04:47:51.734Z,80.86
2022-11-25T04:50:23.056Z,81.22
2022-11-25T04:53:01.933Z,80.36
2022-11-25T04:55:30.147Z,79.06
2022-11-25T04:58:00.637Z,79.81
2022-11-25T05:00:29.103Z,79.57
2022-11-25T05:02:58.216Z,79.83
2022-11-25T05:05:26.359Z,79.76
2022-11-25T05:07:54.240Z,78.52
2022-11-25T05:10:23.643Z,78.64
2022-11-25T05:12:51.926Z,79.54
2022-11-25T05:15:22.820Z,78.84
2022-11-25T05:17:50.641Z,77.94
2022-11-25T05:20:33.845Z,77.86
2022-11-25T05:23:01.835Z,78.46
2022-11-25T05:25:32.760Z,78.54
2022-11-25T05:28:19.029Z,78.13
2022-11-25T05:30:47.645Z,78.58
2022-11-25T05:33:16.635Z,78.15
2022-11-25T05:35:45.058Z,79.15
2022-11-25T05:38:13.199Z,79.37
2022-11-25T05:40:42.450Z,79.92
2022-11-25T05:43:13.983Z,79.65
2022-11-25T05:45:43.097Z,80.54
2022-11-25T05:48:12.699Z,80.29
2022-11-25T05:50:41.154Z,80.04
2022-11-25T05:53:17.351Z,79.72
2022-11-25T05:55:56.175Z,79.14
2022-11-25T05:58:41.023Z,78.28
2022-11-25T06:01:09.616Z,78.55
2022-11-25T06:03:38.518Z,78.17
2022-11-25T06:06:07.599Z,79.19
2022-11-25T06:08:36.723Z,81.01
2022-11-25T06:11:08.201Z,79.46
2022-11-25T06:13:36.801Z,81.51
2022-11-25T06:16:09.780Z,80.90
2022-11-25T06:18:38.849Z,79.70
2022-11-25T06:21:10.092Z,80.42
2022-11-25T06:23:38.951Z,79.80
2022-11-25T06:26:11.307Z,80.06
2022-11-25T06:28:39.893Z,81.30
2022-11-25T06:31:09.455Z,80.94
2022-11-25T06:33:42.894Z,81.03
2022-11-25T06:36:16.919Z,79.70
2022-11-25T06:38:45.082Z,78.69
2022-11-25T06:41:15.447Z,79.91
2022-11-25T06:43:43.309Z,78.46
2022-11-25T06:46:13.332Z,78.58
2022-11-25T06:48:41.442Z,79.83
2022-11-25T06:51:12.622Z,79.29
2022-11-25T06:53:41.273Z,81.06
2022-11-25T06:56:12.079Z,79.13
2022-11-25T06:58:43.029Z,80.67
2022-11-25T07:01:16.385Z,80.67
2022-11-25T07:03:45.396Z,80.14
2022-11-25T07:06:14.230Z,79.59
2022-11-25T07:08:42.482Z,78.88
2022-11-25T07:11:15.818Z,78.96
2022-11-25T07:13:45.326Z,78.79
2022-11-25T07:16:14.025Z,80.29
2022-11-25T07:18:42.764Z,80.09
2022-11-25T07:21:14.077Z,79.62
2022-11-25T07:23:43.319Z,80.28
2022-11-25T07:26:13.001Z,80.24
2022-11-25T07:28:41.220Z,79.94
2022-11-25T07:31:24.310Z,79.45
2022-11-25T07:33:53.706Z,78.83
2022-11-25T07:36:21.853Z,79.88
2022-11-25T07:38:49.688Z,80.14
2022-11-25T07:41:19.403Z,80.95
2022-11-25T07:43:48.109Z,80.00
2022-11-25T07:46:26.493Z,79.51
2022-11-25T07:48:56.439Z,80.80
2022-11-25T07:51:26.629Z,80.10
2022-11-25T07:53:55.632Z,78.95
2022-11-25T07:56:24.360Z,79.49
2022-11-25T07:58:52.274Z,79.42
2022-11-25T08:01:22.243Z,80.21
2022-11-25T08:03:51.551Z,80.29
2022-11-25T08:06:21.176Z,80.97
2022-11-25T08:08:49.895Z,81.81
2022-11-25T08:11:20.487Z,81.16
2022-11-25T08:13:48.997Z,80.64
2022-11-25T08:16:19.420Z,80.50
2022-11-25T08:18:49.330Z,79.22
2022-11-25T08:21:18.864Z,79.61
2022-11-25T08:23:48.959Z,79.53
2022-11-25T08:26:18.669Z,80.55
2022-11-25T08:28:48.037Z,79.38
2022-11-25T08:31:18.441Z,79.55
2022-11-25T08:33:46.911Z,81.24
2022-11-25T08:36:17.102Z,81.13
2022-11-25T08:38:46.078Z,80.00
2022-11-25T08:41:16.288Z,80.58
2022-11-25T08:43:44.751Z,80.73
2022-11-25T08:46:16.132Z,79.92
2022-11-25T08:48:44.260Z,78.77
2022-11-25T08:51:15.087Z,79.58
2022-11-25T08:53:44.962Z,79.85
2022-11-25T08:56:13.865Z,80.23
2022-11-25T08:58:42.009Z,79.58
2022-11-25T09:01:10.544Z,79.00
2022-11-25T09:03:42.164Z,78.52
2022-11-25T09:06:11.715Z,78.08
2022-11-25T09:08:41.477Z,78.63
2022-11-25T09:11:11.094Z,79.03
2022-11-25T09:13:39.434Z,78.50
2022-11-25T09:16:08.978Z,81.11
2022-11-25T09:18:37.364Z,82.69
2022-11-25T09:21:10.230Z,80.42
2022-11-25T09:23:38.603Z,80.41
2022-11-25T09:26:07.778Z,79.91
2022-11-25T09:28:37.690Z,78.19
2022-11-25T09:31:09.409Z,78.34
2022-11-25T09:33:37.483Z,79.26
2022-11-25T09:36:06.151Z,78.08
2022-11-25T09:38:37.702Z,77.27
2022-11-25T09:41:39.038Z,76.61
2022-11-25T09:44:44.135Z,76.66
2022-11-25T09:47:19.101Z,76.47
2022-11-25T09:50:03.788Z,77.84
2022-11-25T09:52:41.342Z,77.51
2022-11-25T09:55:16.433Z,76.82
2022-11-25T09:57:59.704Z,77.19
2022-11-25T10:00:38.659Z,77.33
2022-11-25T10:03:14.335Z,77.33
2022-11-25T10:05:47.301Z,76.56
2022-11-25T10:08:20.287Z,75.66
2022-11-25T10:10:51.090Z,77.92
2022-11-25T10:13:26.471Z,76.52
2022-11-25T10:16:00.675Z,78.19
2022-11-25T10:18:34.196Z,77.59
2022-11-25T10:21:01.893Z,77.79
2022-11-25T10:23:34.951Z,78.20
2022-11-25T10:26:12.423Z,78.09
2022-11-25T10:28:42.534Z,77.54
2022-11-25T10:31:18.229Z,77.60
2022-11-25T10:33:48.175Z,78.22
2022-11-25T10:36:19.929Z,76.42
2022-11-25T10:38:56.977Z,74.30
2022-11-25T10:41:28.428Z,73.12
2022-11-25T10:43:56.364Z,72.87
2022-11-25T10:46:50.101Z,73.85
2022-11-25T10:49:30.967Z,75.60
2022-11-25T10:51:58.963Z,74.91
2022-11-25T10:54:30.205Z,74.54
2022-11-25T10:57:00.299Z,74.89
2022-11-25T10:59:30.523Z,73.46
2022-11-25T11:02:19.168Z,72.85
2022-11-25T11:04:54.142Z,73.26
2022-11-25T11:07:22.475Z,71.58
2022-11-25T11:09:50.625Z,74.09
2022-11-25T11:12:22.596Z,75.38
2022-11-25T11:14:50.906Z,78.32
2022-11-25T11:17:36.023Z,75.30
2022-11-25T11:20:16.028Z,74.58
2022-11-25T11:22:50.791Z,75.40
2022-11-25T11:25:31.158Z,75.85
2022-11-25T11:27:59.762Z,75.77
2022-11-25T11:30:29.531Z,75.65
2022-11-25T11:33:03.087Z,75.02
2022-11-25T11:35:44.594Z,74.44
2022-11-25T11:38:32.628Z,73.03
2022-11-25T11:41:13.270Z,74.13
2022-11-25T11:43:56.463Z,72.51
2022-11-25T11:46:35.206Z,73.65
2022-11-25T11:49:30.410Z,72.36
2022-11-25T11:52:06.205Z,73.13
2022-11-25T11:54:37.769Z,73.55
2022-11-25T11:57:09.145Z,74.40
2022-11-25T11:59:48.968Z,73.14
2022-11-25T12:02:24.194Z,73.62
2022-11-25T12:05:00.415Z,71.78
2022-11-25T12:07:34.758Z,71.86
2022-11-25T12:10:06.663Z,72.34
2022-11-25T12:12:39.084Z,74.97
2022-11-25T12:15:13.925Z,74.55
2022-11-25T12:17:48.452Z,75.60
2022-11-25T12:20:23.521Z,74.55
2022-11-25T12:22:57.181Z,74.36
2022-11-25T12:25:29.492Z,73.96
2022-11-25T12:28:02.420Z,74.14
2022-11-25T12:30:36.165Z,73.42
2022-11-25T12:33:11.686Z,73.14
2022-11-25T12:35:47.417Z,75.52
2022-11-25T12:38:26.284Z,76.81
2022-11-25T12:41:02.274Z,76.64
2022-11-25T12:43:40.774Z,75.24
2022-11-25T12:46:18.209Z,76.63
2022-11-25T12:48:46.220Z,75.07
2022-11-25T12:51:25.796Z,75.80
2022-11-25T12:54:06.875Z,75.92
2022-11-25T12:56:56.581Z,76.31
2022-11-25T12:59:44.321Z,75.95
2022-11-25T13:02:57.768Z,75.14
2022-11-25T13:05:54.719Z,74.05
2022-11-25T13:08:38.127Z,75.76
2022-11-25T13:11:24.987Z,76.12
2022-11-25T13:14:01.053Z,75.76
2022-11-25T13:16:30.055Z,75.45
2022-11-25T13:18:58.793Z,75.44
2022-11-25T13:21:29.027Z,76.55
2022-11-25T13:23:59.169Z,77.13
2022-11-25T13:26:49.817Z,76.86
2022-11-25T13:29:53.485Z,75.51
2022-11-25T13:32:44.134Z,77.31
2022-11-25T13:35:47.871Z,77.54
2022-11-25T13:38:58.833Z,77.01
2022-11-25T13:41:38.499Z,78.33
2022-11-25T13:44:12.142Z,76.98
2022-11-25T13:46:43.293Z,78.68
2022-11-25T13:49:24.727Z,78.72
2022-11-25T13:51:55.602Z,79.26
2022-11-25T13:54:28.298Z,79.29
2022-11-25T13:57:20.825Z,82.11
2022-11-25T13:59:54.997Z,81.83
2022-11-25T14:02:46.001Z,82.66
2022-11-25T14:05:46.477Z,83.59
2022-11-25T14:08:27.530Z,84.71
2022-11-25T14:11:11.573Z,84.29
2022-11-25T14:14:05.419Z,85.12
2022-11-25T14:16:42.782Z,85.81
2022-11-25T14:19:56.231Z,84.21
2022-11-25T14:22:51.874Z,84.53
2022-11-25T14:25:23.908Z,86.22
2022-11-25T14:28:03.673Z,85.13
2022-11-25T14:30:35.081Z,83.54
2022-11-25T14:33:05.786Z,82.61
2022-11-25T14:35:44.819Z,82.29
2022-11-25T14:38:17.276Z,81.24
2022-11-25T14:40:54.626Z,82.87
2022-11-25T14:43:24.643Z,83.92
2022-11-25T14:46:12.494Z,83.56
2022-11-25T14:48:40.396Z,82.78
2022-11-25T14:51:09.864Z,81.63
2022-11-25T14:53:47.329Z,82.47
2022-11-25T14:56:22.080Z,81.72
2022-11-25T14:58:52.793Z,82.39
2022-11-25T15:01:24.772Z,82.62
2022-11-25T15:04:01.640Z,82.11
2022-11-25T15:06:30.239Z,80.88
2022-11-25T15:08:59.908Z,81.31
2022-11-25T15:11:32.826Z,81.25
2022-11-25T15:14:02.469Z,81.68
2022-11-25T15:16:38.725Z,82.58
2022-11-25T15:19:15.856Z,81.37
2022-11-25T15:22:14.881Z,82.56
2022-11-25T15:24:41.315Z,82.08
2022-11-25T15:27:17.253Z,81.46
2022-11-25T15:29:47.417Z,80.53
2022-11-25T15:32:19.774Z,81.24
2022-11-25T15:34:48.738Z,80.85
2022-11-25T15:37:16.591Z,80.51
2022-11-25T15:39:44.661Z,81.26
2022-11-25T15:42:18.203Z,83.44
2022-11-25T15:44:51.541Z,82.00
2022-11-25T15:47:24.303Z,82.02
2022-11-25T15:50:01.366Z,81.33
2022-11-25T15:52:32.596Z,81.59
2022-11-25T15:55:04.420Z,83.06
2022-11-25T15:57:35.504Z,82.89
2022-11-25T16:00:15.971Z,82.51
2022-11-25T16:02:54.554Z,81.95
2022-11-25T16:05:32.054Z,81.47
2022-11-25T16:08:02.958Z,80.80
2022-11-25T16:10:34.007Z,82.12
2022-11-25T16:13:30.908Z,82.43
2022-11-25T16:16:09.740Z,81.90
2022-11-25T16:18:42.368Z,81.52
2022-11-25T16:21:14.169Z,81.33
2022-11-25T16:23:46.729Z,81.34
2022-11-25T16:26:17.744Z,82.13
2022-11-25T16:28:53.068Z,81.38
2022-11-25T16:31:21.394Z,80.61
2022-11-25T16:33:51.403Z,80.70
2022-11-25T16:36:19.243Z,79.74
2022-11-25T16:38:47.060Z,80.06
2022-11-25T16:41:21.784Z,79.78
2022-11-25T16:43:49.667Z,80.53
2022-11-25T16:46:19.881Z,79.61
2022-11-25T16:48:50.128Z,79.07
2022-11-25T16:51:19.569Z,79.39
2022-11-25T16:53:48.379Z,79.19
2022-11-25T16:56:19.755Z,78.66
2022-11-25T16:58:47.625Z,78.58
2022-11-25T17:01:18.339Z,77.99
2022-11-25T17:03:46.241Z,78.29
2022-11-25T17:06:21.963Z,78.07
2022-11-25T17:08:51.488Z,77.97
2022-11-25T17:11:22.507Z,77.94
2022-11-25T17:13:52.683Z,77.53
2022-11-25T17:16:23.793Z,77.35
2022-11-25T17:18:54.283Z,77.43
2022-11-25T17:21:26.860Z,78.09
2022-11-25T17:23:55.855Z,78.43
2022-11-25T17:26:27.339Z,77.62
2022-11-25T17:28:57.788Z,77.48
2022-11-25T17:31:28.614Z,77.43
2022-11-25T17:33:56.968Z,77.45
2022-11-25T17:36:26.783Z,77.64
2022-11-25T17:38:54.881Z,78.63
2022-11-25T17:41:25.296Z,78.76
2022-11-25T17:43:54.469Z,78.21
2022-11-25T17:46:24.786Z,78.01
2022-11-25T17:48:52.744Z,78.83
2022-11-25T17:51:20.593Z,78.31
2022-11-25T17:53:49.891Z,78.70
2022-11-25T17:56:23.484Z,79.59
2022-11-25T17:58:52.277Z,78.83
2022-11-25T18:01:20.564Z,78.85
2022-11-25T18:03:52.172Z,78.38
2022-11-25T18:06:20.266Z,78.62
2022-11-25T18:08:49.712Z,79.45
2022-11-25T18:11:19.583Z,79.63
2022-11-25T18:13:48.531Z,79.39
2022-11-25T18:16:20.520Z,79.58
2022-11-25T18:18:50.542Z,80.54
2022-11-25T18:21:18.507Z,80.25
2022-11-25T18:23:46.587Z,80.55
2022-11-25T18:26:16.037Z,81.31
2022-11-25T18:28:43.950Z,80.41
2022-11-25T18:31:12.745Z,80.73
2022-11-25T18:33:40.710Z,79.75
2022-11-25T18:36:13.721Z,79.42
2022-11-25T18:38:41.572Z,79.80
2022-11-25T18:41:20.772Z,80.64
2022-11-25T18:43:48.681Z,81.43
2022-11-25T18:46:16.648Z,80.52
2022-11-25T18:48:44.733Z,80.74
2022-11-25T18:51:14.408Z,80.99
2022-11-25T18:53:42.257Z,81.24
2022-11-25T18:56:17.807Z,80.19
2022-11-25T18:58:51.453Z,81.18
2022-11-25T19:01:21.349Z,80.88
2022-11-25T19:03:49.552Z,81.20
2022-11-25T19:06:18.067Z,82.06
2022-11-25T19:08:45.904Z,81.19
2022-11-25T19:11:17.429Z,81.21
2022-11-25T19:13:50.816Z,81.92
2022-11-25T19:16:21.885Z,81.37
2022-11-25T19:18:50.430Z,81.66
2022-11-25T19:21:20.750Z,81.83
2022-11-25T19:23:48.978Z,82.06
2022-11-25T19:26:20.176Z,82.15
2022-11-25T19:28:52.752Z,81.78
2022-11-25T19:31:21.533Z,82.62
2022-11-25T19:33:52.252Z,82.14
2022-11-25T19:36:24.782Z,82.39
2022-11-25T19:38:53.425Z,82.26
2022-11-25T19:41:21.666Z,81.76
2022-11-25T19:43:51.208Z,82.02
2022-11-25T19:46:30.107Z,82.26
2022-11-25T19:49:06.601Z,82.26
2022-11-25T19:51:35.780Z,82.74
2022-11-25T19:54:03.709Z,82.53
2022-11-25T19:56:31.623Z,82.57
2022-11-25T19:59:00.956Z,82.43
2022-11-25T20:01:33.956Z,82.22
2022-11-25T20:04:03.209Z,82.04
2022-11-25T20:06:31.606Z,82.16
2022-11-25T20:09:06.392Z,82.74
2022-11-25T20:11:36.958Z,82.46
2022-11-25T20:14:06.532Z,82.59
2022-11-25T20:16:37.855Z,82.54
2022-11-25T20:19:06.972Z,83.39
2022-11-25T20:21:37.635Z,82.85
2022-11-25T20:24:11.718Z,82.67
2022-11-25T20:26:45.854Z,82.49
2022-11-25T20:29:17.176Z,83.24
2022-11-25T20:31:45.411Z,83.44
2022-11-25T20:34:13.352Z,84.63
2022-11-25T20:36:43.069Z,84.19
2022-11-25T20:39:18.058Z,83.82
2022-11-25T20:41:49.733Z,84.55
2022-11-25T20:44:19.882Z,83.66
2022-11-25T20:46:48.158Z,83.77
2022-11-25T20:49:22.336Z,83.97
2022-11-25T20:51:50.724Z,84.23
2022-11-25T20:54:18.751Z,83.75
2022-11-25T20:56:46.627Z,84.65
2022-11-25T20:59:22.065Z,84.23
2022-11-25T21:01:50.223Z,83.84
2022-11-25T21:04:18.396Z,83.83
2022-11-25T21:06:46.370Z,84.45
2022-11-25T21:09:20.061Z,84.46
2022-11-25T21:11:48.301Z,84.20
2022-11-25T21:14:18.116Z,84.27
2022-11-25T21:16:48.166Z,84.29
2022-11-25T21:19:16.299Z,83.58
2022-11-25T21:21:47.786Z,84.40
2022-11-25T21:24:27.711Z,84.37
2022-11-25T21:26:56.006Z,83.97
2022-11-25T21:29:23.907Z,83.96
2022-11-25T21:31:53.158Z,83.95
2022-11-25T21:34:21.383Z,83.45
2022-11-25T21:36:52.437Z,83.80
2022-11-25T21:39:28.674Z,83.74
2022-11-25T21:41:59.107Z,84.06
2022-11-25T21:44:31.810Z,84.15
2022-11-25T21:47:01.091Z,85.12
2022-11-25T21:49:28.952Z,84.87
2022-11-25T21:51:56.828Z,84.47
2022-11-25T21:54:24.673Z,84.93
2022-11-25T21:56:52.986Z,84.58
2022-11-25T21:59:21.738Z,84.16
2022-11-25T22:01:49.949Z,84.08
2022-11-25T22:04:22.328Z,84.94
2022-11-25T22:06:51.060Z,85.26
2022-11-25T22:09:19.215Z,84.30
2022-11-25T22:11:50.361Z,84.46
2022-11-25T22:14:27.532Z,84.29
2022-11-25T22:16:56.626Z,84.44
2022-11-25T22:19:28.422Z,84.34
2022-11-25T22:21:56.454Z,84.18
2022-11-25T22:24:24.475Z,84.33
2022-11-25T22:26:57.683Z,84.65
2022-11-25T22:29:31.751Z,85.40
2022-11-25T22:31:59.672Z,84.50
2022-11-25T22:34:29.269Z,85.79
2022-11-25T22:36:57.142Z,85.23
2022-11-25T22:39:27.340Z,84.54
2022-11-25T22:41:57.485Z,85.84
2022-11-25T22:44:32.501Z,85.25
2022-11-25T22:47:00.825Z,84.59
2022-11-25T22:49:35.582Z,84.58
2022-11-25T22:52:03.843Z,84.65
2022-11-25T22:54:31.694Z,85.94
2022-11-25T22:56:59.967Z,86.13
2022-11-25T22:59:27.808Z,85.88
2022-11-25T23:01:55.857Z,85.03
2022-11-25T23:04:23.764Z,85.41
2022-11-25T23:06:55.206Z,85.75
2022-11-25T23:09:23.230Z,85.04
2022-11-25T23:11:51.076Z,85.41
2022-11-25T23:14:18.875Z,85.44
2022-11-25T23:16:46.883Z,85.44
2022-11-25T23:19:16.952Z,84.89
2022-11-25T23:21:46.479Z,84.77
2022-11-25T23:24:18.004Z,85.03
2022-11-25T23:26:46.199Z,85.89
2022-11-25T23:29:14.013Z,85.11
2022-11-25T23:31:41.989Z,84.82
2022-11-25T23:34:13.482Z,85.04
2022-11-25T23:36:45.659Z,84.89
2022-11-25T23:39:20.231Z,85.88
2022-11-25T23:41:48.812Z,85.28
2022-11-25T23:44:23.591Z,85.44
2022-11-25T23:46:52.766Z,85.39
2022-11-25T23:49:24.603Z,86.01
2022-11-25T23:51:53.180Z,85.69
2022-11-25T23:54:23.273Z,84.69
2022-11-25T23:56:51.188Z,85.48
2022-11-25T23:59:19.027Z,86.82
